createdAt,value
2023-05-22T00:02:39.084Z,99.90
2023-05-22T00:06:44.109Z,99.90
2023-05-22T00:10:45.878Z,99.90
2023-05-22T00:14:47.652Z,99.90
2023-05-22T00:18:49.721Z,99.90
2023-05-22T00:22:52.779Z,99.90
2023-05-22T00:26:54.682Z,99.90
2023-05-22T00:30:56.552Z,99.90
2023-05-22T00:34:58.399Z,99.90
2023-05-22T00:39:00.156Z,99.90
2023-05-22T00:43:08.515Z,99.90
2023-05-22T00:47:10.561Z,99.90
2023-05-22T00:51:12.383Z,99.90
2023-05-22T00:55:14.474Z,99.90
2023-05-22T00:59:17.033Z,99.90
2023-05-22T01:03:19.606Z,99.90
2023-05-22T01:07:21.697Z,99.90
2023-05-22T01:11:28.429Z,99.90
2023-05-22T01:15:46.777Z,99.90
2023-05-22T01:20:06.943Z,99.90
2023-05-22T01:24:33.127Z,99.90
2023-05-22T01:28:52.626Z,99.90
2023-05-22T01:32:54.844Z,99.90
2023-05-22T01:36:56.698Z,99.90
2023-05-22T01:40:58.540Z,99.90
2023-05-22T01:45:00.324Z,99.90
2023-05-22T01:49:02.109Z,99.90
2023-05-22T01:53:24.843Z,99.90
2023-05-22T01:57:33.010Z,99.90
2023-05-22T02:01:41.302Z,99.90
2023-05-22T02:05:49.194Z,99.90
2023-05-22T02:10:04.215Z,99.90
2023-05-22T02:14:12.248Z,99.90
2023-05-22T02:18:14.209Z,99.90
2023-05-22T02:22:22.198Z,99.90
2023-05-22T02:26:24.155Z,99.90
2023-05-22T02:30:26.018Z,99.90
2023-05-22T02:34:27.804Z,99.90
2023-05-22T02:38:29.565Z,99.90
2023-05-22T02:42:31.444Z,99.90
2023-05-22T02:46:33.364Z,99.90
2023-05-22T02:50:35.348Z,99.90
2023-05-22T02:54:37.184Z,99.90
2023-05-22T02:58:39.593Z,99.90
2023-05-22T03:02:41.334Z,99.90
2023-05-22T03:06:46.343Z,99.90
2023-05-22T03:10:48.474Z,99.90
2023-05-22T03:14:50.545Z,99.90
2023-05-22T03:19:13.834Z,99.90
2023-05-22T03:23:15.741Z,99.90
2023-05-22T03:27:17.539Z,99.90
2023-05-22T03:31:19.339Z,99.90
2023-05-22T03:35:21.244Z,99.90
2023-05-22T03:39:23.025Z,99.90
2023-05-22T03:43:24.778Z,99.90
2023-05-22T03:47:26.655Z,99.90
2023-05-22T03:51:28.454Z,99.90
2023-05-22T03:55:30.912Z,99.90
2023-05-22T03:59:32.638Z,99.90
2023-05-22T04:03:34.455Z,99.90
2023-05-22T04:07:36.611Z,99.90
2023-05-22T04:11:42.672Z,99.90
2023-05-22T04:20:19.138Z,99.90
2023-05-22T04:29:18.457Z,99.90
2023-05-22T04:33:22.455Z,99.90
2023-05-22T04:37:26.642Z,99.90
2023-05-22T04:41:30.816Z,99.90
2023-05-22T04:45:35.633Z,99.90
2023-05-22T04:49:39.194Z,99.90
2023-05-22T04:53:41.161Z,99.90
2023-05-22T04:57:45.792Z,99.90
2023-05-22T05:01:47.926Z,99.90
2023-05-22T05:05:49.744Z,99.90
2023-05-22T05:09:51.984Z,99.90
2023-05-22T05:13:54.136Z,99.90
2023-05-22T05:17:56.290Z,99.90
2023-05-22T05:21:58.230Z,99.90
2023-05-22T05:26:33.218Z,99.90
2023-05-22T05:30:44.349Z,99.90
2023-05-22T05:34:46.421Z,99.90
2023-05-22T05:38:48.297Z,99.90
2023-05-22T05:42:50.333Z,99.90
2023-05-22T05:46:52.678Z,99.90
2023-05-22T05:50:54.488Z,99.90
2023-05-22T05:54:56.342Z,99.90
2023-05-22T05:58:58.162Z,99.90
2023-05-22T06:03:00.013Z,99.90
2023-05-22T06:07:03.090Z,99.90
2023-05-22T06:11:07.430Z,99.90
2023-05-22T06:19:52.040Z,99.90
2023-05-22T06:23:53.893Z,99.90
2023-05-22T06:27:55.951Z,99.90
2023-05-22T06:31:57.752Z,99.90
2023-05-22T06:35:59.679Z,99.90
2023-05-22T06:40:01.815Z,99.90
2023-05-22T06:44:03.911Z,99.90
2023-05-22T06:48:06.374Z,99.90
2023-05-22T06:52:16.352Z,99.40
2023-05-22T06:56:18.882Z,99.10
2023-05-22T07:00:21.986Z,98.70
2023-05-22T07:04:24.061Z,97.70
2023-05-22T07:08:28.356Z,97.40
2023-05-22T07:12:31.581Z,96.90
2023-05-22T07:16:33.564Z,95.70
2023-05-22T07:20:35.731Z,94.80
2023-05-22T07:24:37.702Z,94.40
2023-05-22T07:28:41.868Z,93.50
2023-05-22T07:32:43.675Z,92.00
2023-05-22T07:36:45.866Z,90.90
2023-05-22T07:40:50.772Z,91.30
2023-05-22T07:44:52.678Z,90.80
2023-05-22T07:48:54.525Z,90.90
2023-05-22T07:52:56.584Z,91.80
2023-05-22T07:56:58.426Z,91.40
2023-05-22T08:01:02.997Z,91.10
2023-05-22T08:05:05.584Z,91.70
2023-05-22T08:09:07.514Z,91.00
2023-05-22T08:13:10.135Z,91.00
2023-05-22T08:17:12.224Z,91.10
2023-05-22T08:21:14.020Z,91.30
2023-05-22T08:25:16.168Z,91.10
2023-05-22T08:29:18.793Z,89.70
2023-05-22T08:33:20.739Z,88.80
2023-05-22T08:37:22.503Z,86.40
2023-05-22T08:41:24.226Z,85.00
2023-05-22T08:45:26.315Z,85.20
2023-05-22T08:49:28.165Z,85.10
2023-05-22T08:53:34.186Z,85.50
2023-05-22T08:57:36.029Z,85.50
2023-05-22T09:01:37.912Z,85.50
2023-05-22T09:05:42.499Z,84.60
2023-05-22T09:09:44.375Z,83.10
2023-05-22T09:13:46.635Z,84.50
2023-05-22T09:17:48.421Z,83.70
2023-05-22T09:21:50.910Z,80.80
2023-05-22T09:25:57.508Z,80.30
2023-05-22T09:29:59.302Z,80.30
2023-05-22T09:34:01.500Z,82.70
2023-05-22T09:38:34.492Z,83.00
2023-05-22T09:42:40.467Z,81.40
2023-05-22T09:46:57.004Z,84.20
2023-05-22T09:51:09.248Z,85.60
2023-05-22T09:55:16.976Z,88.60
2023-05-22T09:59:46.232Z,90.20
2023-05-22T10:04:24.511Z,89.60
2023-05-22T10:08:28.678Z,90.10
2023-05-22T10:12:32.948Z,91.00
2023-05-22T10:16:40.367Z,91.50
2023-05-22T10:20:42.311Z,91.20
2023-05-22T10:24:46.369Z,91.50
2023-05-22T10:28:53.407Z,91.40
2023-05-22T10:33:06.368Z,91.10
2023-05-22T10:37:24.140Z,91.40
2023-05-22T10:41:27.091Z,91.40
2023-05-22T10:45:32.042Z,91.10
2023-05-22T10:49:33.891Z,91.80
2023-05-22T10:53:36.163Z,91.90
2023-05-22T10:57:38.482Z,91.60
2023-05-22T11:01:40.633Z,91.90
2023-05-22T11:05:42.554Z,91.70
2023-05-22T11:09:47.791Z,91.70
2023-05-22T11:13:52.437Z,91.40
2023-05-22T11:17:55.513Z,91.20
2023-05-22T11:22:00.672Z,90.60
2023-05-22T11:26:22.755Z,90.20
2023-05-22T11:30:33.589Z,90.40
2023-05-22T11:34:38.479Z,90.60
2023-05-22T11:38:42.189Z,90.20
2023-05-22T11:42:44.196Z,90.10
2023-05-22T11:46:47.077Z,90.40
2023-05-22T11:50:49.053Z,90.50
2023-05-22T11:54:52.211Z,90.70
2023-05-22T11:58:54.042Z,91.00
2023-05-22T12:02:55.964Z,90.80
2023-05-22T12:06:57.838Z,91.00
2023-05-22T12:10:59.800Z,90.90
2023-05-22T12:15:01.731Z,91.00
2023-05-22T12:19:10.559Z,91.20
2023-05-22T12:23:20.786Z,91.20
2023-05-22T12:27:22.839Z,91.60
2023-05-22T12:31:25.096Z,91.70
2023-05-22T12:35:29.194Z,91.30
2023-05-22T12:39:39.721Z,92.00
2023-05-22T12:43:52.712Z,91.20
2023-05-22T12:47:54.682Z,91.10
2023-05-22T12:51:56.525Z,91.00
2023-05-22T12:56:01.207Z,90.60
2023-05-22T13:00:04.693Z,90.90
2023-05-22T13:04:08.780Z,90.50
2023-05-22T13:08:10.635Z,90.10
2023-05-22T13:12:21.426Z,90.40
2023-05-22T13:16:23.636Z,90.20
2023-05-22T13:20:28.289Z,90.50
2023-05-22T13:24:30.151Z,90.30
2023-05-22T13:28:34.162Z,90.40
2023-05-22T13:32:36.091Z,90.50
2023-05-22T13:36:38.054Z,90.50
2023-05-22T13:40:39.894Z,91.00
2023-05-22T13:44:41.671Z,90.90
2023-05-22T13:48:44.032Z,90.70
2023-05-22T13:52:45.818Z,90.80
2023-05-22T13:56:50.091Z,91.00
2023-05-22T14:00:51.879Z,91.10
2023-05-22T14:04:56.764Z,91.50
2023-05-22T14:08:59.158Z,91.20
2023-05-22T14:13:00.931Z,91.00
2023-05-22T14:17:08.717Z,91.00
2023-05-22T14:22:48.049Z,90.80
2023-05-22T14:25:57.371Z,90.80
2023-05-22T14:30:19.661Z,91.30
2023-05-22T14:39:08.913Z,91.10
2023-05-22T14:43:14.042Z,91.20
2023-05-22T14:47:16.042Z,91.20
2023-05-22T14:51:36.431Z,91.70
2023-05-22T14:55:41.373Z,91.30
2023-05-22T14:59:43.404Z,91.60
2023-05-22T15:03:50.055Z,91.40
2023-05-22T15:08:02.312Z,91.40
2023-05-22T15:12:04.256Z,91.30
2023-05-22T15:16:06.074Z,91.40
2023-05-22T15:20:09.295Z,91.20
2023-05-22T15:24:11.806Z,91.40
2023-05-22T15:28:13.538Z,90.70
2023-05-22T15:32:23.897Z,90.90
2023-05-22T15:36:27.479Z,91.10
2023-05-22T15:40:29.445Z,91.00
2023-05-22T15:44:31.455Z,90.90
2023-05-22T15:48:41.559Z,91.10
2023-05-22T15:52:45.839Z,90.80
2023-05-22T15:56:57.113Z,91.00
2023-05-22T16:00:59.804Z,91.30
2023-05-22T16:05:01.970Z,91.30
2023-05-22T16:09:04.543Z,90.90
2023-05-22T16:13:06.496Z,91.10
2023-05-22T16:17:11.511Z,91.40
2023-05-22T16:21:13.496Z,91.30
2023-05-22T16:25:25.668Z,91.20
2023-05-22T16:29:27.539Z,91.40
2023-05-22T16:33:29.485Z,91.30
2023-05-22T16:37:31.744Z,91.50
2023-05-22T16:41:34.177Z,91.60
2023-05-22T16:45:36.272Z,91.80
2023-05-22T16:49:39.661Z,92.20
2023-05-22T16:53:44.164Z,92.40
2023-05-22T16:57:46.930Z,92.50
2023-05-22T17:01:49.105Z,92.90
2023-05-22T17:05:51.368Z,93.00
2023-05-22T17:09:53.258Z,92.90
2023-05-22T17:13:59.670Z,93.10
2023-05-22T17:18:05.747Z,93.40
2023-05-22T17:22:10.452Z,93.70
2023-05-22T17:26:13.087Z,93.90
2023-05-22T17:30:17.515Z,93.90
2023-05-22T17:34:21.971Z,94.30
2023-05-22T17:38:28.952Z,94.70
2023-05-22T17:42:33.870Z,94.90
2023-05-22T17:46:50.855Z,95.10
2023-05-22T17:51:23.938Z,95.40
2023-05-22T17:55:54.383Z,95.50
2023-05-22T18:00:35.597Z,95.90
2023-05-22T18:05:35.503Z,96.20
2023-05-22T18:10:27.684Z,96.30
2023-05-22T18:14:34.776Z,96.30
2023-05-22T18:18:53.395Z,96.90
2023-05-22T18:22:56.897Z,96.60
2023-05-22T18:26:58.874Z,96.60
2023-05-22T18:31:04.255Z,96.80
2023-05-22T18:35:12.351Z,96.80
2023-05-22T18:39:17.653Z,97.00
2023-05-22T18:43:25.118Z,97.60
2023-05-22T18:47:28.866Z,97.40
2023-05-22T18:51:34.197Z,97.60
2023-05-22T18:55:43.579Z,97.70
2023-05-22T19:00:02.155Z,97.80
2023-05-22T19:04:15.231Z,98.10
2023-05-22T19:08:29.721Z,98.30
2023-05-22T19:12:58.280Z,98.50
2023-05-22T19:17:05.687Z,98.60
2023-05-22T19:21:08.836Z,98.90
2023-05-22T19:25:13.199Z,99.10
2023-05-22T19:29:30.279Z,99.10
2023-05-22T19:33:37.699Z,99.20
2023-05-22T19:37:43.605Z,99.40
2023-05-22T19:41:48.509Z,99.50
2023-05-22T19:46:08.998Z,99.70
2023-05-22T19:50:11.959Z,99.80
2023-05-22T19:54:13.807Z,99.90
2023-05-22T19:58:17.840Z,99.70
2023-05-22T20:02:19.668Z,99.90
2023-05-22T20:06:22.237Z,99.80
2023-05-22T20:10:25.921Z,99.80
2023-05-22T20:14:27.737Z,99.50
2023-05-22T20:18:32.126Z,99.60
2023-05-22T20:22:33.953Z,99.40
2023-05-22T20:26:35.806Z,99.40
2023-05-22T20:30:37.626Z,99.50
2023-05-22T20:34:40.163Z,99.60
2023-05-22T20:38:45.367Z,99.60
2023-05-22T20:42:47.626Z,99.70
2023-05-22T20:46:50.343Z,99.70
2023-05-22T20:50:52.332Z,99.80
2023-05-22T20:54:54.058Z,99.90
2023-05-22T20:58:56.282Z,99.90
2023-05-22T21:02:58.617Z,99.90
2023-05-22T21:07:00.456Z,99.90
2023-05-22T21:11:02.185Z,99.90
2023-05-22T21:15:04.389Z,99.90
2023-05-22T21:19:09.694Z,99.90
2023-05-22T21:23:11.564Z,99.90
2023-05-22T21:27:13.376Z,99.90
2023-05-22T21:31:15.156Z,99.90
2023-05-22T21:35:16.990Z,99.90
2023-05-22T21:39:18.696Z,99.90
2023-05-22T21:43:20.423Z,99.90
2023-05-22T21:47:22.372Z,99.90
2023-05-22T21:51:24.246Z,99.90
2023-05-22T21:55:26.001Z,99.90
2023-05-22T21:59:27.733Z,99.90
2023-05-22T22:03:29.596Z,99.90
2023-05-22T22:07:31.430Z,99.90
2023-05-22T22:11:33.308Z,99.90
2023-05-22T22:15:36.691Z,99.90
2023-05-22T22:19:38.424Z,99.90
2023-05-22T22:23:40.617Z,99.90
2023-05-22T22:27:42.316Z,99.90
2023-05-22T22:31:44.158Z,99.90
2023-05-22T22:35:45.958Z,99.90
2023-05-22T22:39:48.135Z,99.90
2023-05-22T22:43:50.054Z,99.90
2023-05-22T22:47:52.745Z,99.90
2023-05-22T22:51:54.805Z,99.90
2023-05-22T22:55:56.863Z,99.90
2023-05-22T22:59:58.767Z,99.90
2023-05-22T23:04:00.633Z,99.90
2023-05-22T23:08:02.446Z,99.90
2023-05-22T23:12:06.406Z,99.90
2023-05-22T23:16:08.354Z,99.90
2023-05-22T23:20:10.883Z,99.90
2023-05-22T23:24:12.915Z,99.90
2023-05-22T23:28:14.741Z,99.90
2023-05-22T23:32:16.474Z,99.90
2023-05-22T23:36:18.596Z,99.90
2023-05-22T23:40:20.450Z,99.90
2023-05-22T23:44:22.185Z,99.90
2023-05-22T23:48:23.949Z,99.90
2023-05-22T23:52:26.552Z,99.90
2023-05-22T23:56:28.348Z,99.90
